Jack Mc Namara Field Airport Crescent City US
ICAO: KCEC
IATA: CEC
Category: Medium
Scheduled Services: Yes

Elevation: 61 ft
TransAlt. 18000 ft.

Airport Communications:
ASOS:119.925
SEATTLE CNTR:124.85
CTAF:122.8
OAKLAND RDO:122.3
UNICOM:122.8

KCEC Zoom In..

If you have problems with the map follow the link
https://www.worldairports.se/pages/airport.php?
ICAO=KCEC

Runways:

(A) RW 11 length 5000 ft width 150 ft
ILS 108.70 / hdg 117

(B) RW 17 length 5001 ft width 150 ft
---- / hdg 177

(C) RW 29 length 5000 ft width 150 ft
---- / hdg 297

(D) RW 35 length 5001 ft width 150 ft
---- / hdg 357

Location; KCEC
Day. 08 / Time. 12.12 Zulu
* Altimeter: 29.95
* Temperature: 11° c. 51.8°f.
* Wind from: 350° Speed 06 kn.
Dewpoint: 10° c.
Visibility: 8 Statute Miles.
Clouds: Scattered 700 ft.
Clouds: Overcast 1500 ft.

KCEC 081212Z AUTO 35006KT 8SM SCT007 OVC015 11/10 A2995 RMK AO2 T01060100


Wind From 350°
Speed 06 kn.

 
 
jpsmedia worldairports.se 2019   terms of use